Time;durP1;ratioP1;P1;durP2;ratioP2;P2;SDS_P1;SDS_P2;PMS_P1;PMS_P2;Temp;Humidity;BMP_temperature;BMP_pressure;BME280_temperature;BME280_humidity;BME280_pressure;Samples;Min_cycle;Max_cycle;Signal;HPM_P1;HPM_P2
2021/07/03 00:01:35;;;;;;;8.27;2.12;;;;;;;28.59;37.01;99454.50;4468720;32;34059;-79
2021/07/03 00:04:03;;;;;;;2.08;1.42;;;;;;;28.59;37.05;99466.31;4495933;31;33746;-75
2021/07/03 00:06:30;;;;;;;5.72;1.80;;;;;;;28.59;37.05;99460.00;4508636;31;34054;-80
2021/07/03 00:08:58;;;;;;;3.22;1.37;;;;;;;28.58;37.06;99463.81;4510576;31;34780;-80
2021/07/03 00:11:26;;;;;;;3.25;1.37;;;;;;;28.60;37.10;99456.97;4511552;31;34057;-78
2021/07/03 00:13:53;;;;;;;3.90;1.42;;;;;;;28.58;37.08;99459.16;4511772;31;33754;-75
2021/07/03 00:16:20;;;;;;;3.78;1.60;;;;;;;28.58;37.08;99456.41;4511467;31;33463;-79
2021/07/03 00:18:48;;;;;;;6.05;1.73;;;;;;;28.58;37.08;99464.62;4510304;31;33538;-79
2021/07/03 00:21:16;;;;;;;4.60;1.40;;;;;;;28.58;37.06;99447.34;4497105;31;34367;-79
2021/07/03 00:23:43;;;;;;;3.47;1.40;;;;;;;28.58;37.19;99448.16;4510430;31;34538;-74
2021/07/03 00:26:11;;;;;;;4.75;1.58;;;;;;;28.58;37.13;99445.41;4510245;31;33061;-80
2021/07/03 00:28:38;;;;;;;4.03;1.48;;;;;;;28.58;37.18;99450.09;4510099;31;33075;-80
2021/07/03 00:31:06;;;;;;;4.78;1.83;;;;;;;28.56;37.18;99444.87;4507989;31;34159;-82
2021/07/03 00:33:33;;;;;;;3.95;1.50;;;;;;;28.58;37.22;99450.09;4485060;31;33726;-83
2021/07/03 00:36:01;;;;;;;3.25;1.50;;;;;;;28.56;37.26;99453.13;4481567;32;33378;-76
2021/07/03 00:38:28;;;;;;;2.45;1.35;;;;;;;28.56;37.22;99446.81;4509542;31;33957;-80
2021/07/03 00:40:56;;;;;;;4.93;1.52;;;;;;;28.57;37.18;99453.94;4500134;31;33995;-82
2021/07/03 00:43:24;;;;;;;4.30;1.70;;;;;;;28.55;37.28;99447.91;4510282;31;33712;-72
2021/07/03 00:45:52;;;;;;;4.00;1.60;;;;;;;28.55;37.30;99451.47;4504428;31;34411;-80
2021/07/03 00:48:20;;;;;;;4.03;1.60;;;;;;;28.56;37.20;99455.84;4494280;31;32429;-83
2021/07/03 00:50:47;;;;;;;3.58;1.58;;;;;;;28.55;37.27;99454.22;4509018;31;34796;-79
2021/07/03 00:53:16;;;;;;;6.50;1.80;;;;;;;28.55;37.28;99458.88;4509812;31;34473;-82
2021/07/03 00:55:45;;;;;;;3.65;1.80;;;;;;;28.53;37.32;99450.06;4510098;31;33452;-81
2021/07/03 00:58:13;;;;;;;3.40;1.60;;;;;;;28.53;37.24;99467.37;4494406;32;34090;-79
2021/07/03 01:00:40;;;;;;;3.22;1.80;;;;;;;28.52;37.20;99460.22;4495412;32;33958;-83
2021/07/03 01:03:08;;;;;;;4.15;2.03;;;;;;;28.51;37.20;99458.59;4493887;32;33404;-74
2021/07/03 01:05:36;;;;;;;3.47;2.00;;;;;;;28.51;37.23;99458.59;4469922;32;31930;-81
2021/07/03 01:08:04;;;;;;;2.72;1.70;;;;;;;28.50;37.20;99456.94;4484094;31;33855;-82
2021/07/03 01:10:32;;;;;;;4.60;2.00;;;;;;;28.51;37.27;99452.28;4485085;32;33831;-80
2021/07/03 01:13:01;;;;;;;3.75;1.73;;;;;;;28.50;37.16;99456.94;4470270;32;32066;-83
2021/07/03 01:15:29;;;;;;;2.70;1.80;;;;;;;28.49;37.22;99455.28;4467423;32;31990;-78
2021/07/03 01:17:57;;;;;;;2.40;1.48;;;;;;;28.49;37.29;99455.28;4483803;32;34971;-81
2021/07/03 01:20:25;;;;;;;2.97;1.55;;;;;;;28.48;37.38;99462.69;4457848;32;34058;-82
2021/07/03 01:22:53;;;;;;;2.62;1.65;;;;;;;28.48;37.41;99459.94;4470785;31;33487;-72
2021/07/03 01:25:21;;;;;;;3.47;1.70;;;;;;;28.50;37.36;99469.84;4483769;32;34007;-82
2021/07/03 01:28:00;;;;;;;3.17;1.52;;;;;;;28.51;37.31;99468.75;4470895;32;34658;-79
2021/07/03 01:30:29;;;;;;;3.97;1.75;;;;;;;28.54;37.46;99468.19;4470602;32;34086;-80
2021/07/03 01:32:57;;;;;;;4.05;1.62;;;;;;;28.53;37.35;99466.53;4470374;32;33528;-81
2021/07/03 01:35:26;;;;;;;3.33;1.58;;;;;;;28.51;37.27;99466.81;4483403;31;32970;-82
2021/07/03 01:37:54;;;;;;;4.30;1.60;;;;;;;28.50;37.39;99469.84;4470864;32;33591;-76
2021/07/03 01:40:23;;;;;;;3.47;1.75;;;;;;;28.49;37.22;99466.25;4487845;31;33930;-81
2021/07/03 01:42:51;;;;;;;2.85;1.75;;;;;;;28.50;37.38;99467.09;4499410;31;33876;-80
2021/07/03 01:45:19;;;;;;;2.72;1.70;;;;;;;28.48;37.29;99470.09;4499195;31;33426;-82
2021/07/03 01:47:46;;;;;;;2.53;1.50;;;;;;;28.48;37.28;99470.09;4500347;31;34553;-81
2021/07/03 01:50:15;;;;;;;3.47;1.80;;;;;;;28.49;37.35;99469.00;4499317;31;33950;-76
2021/07/03 01:52:43;;;;;;;4.10;1.80;;;;;;;28.47;37.34;99465.69;4500086;31;33869;-82
2021/07/03 01:55:12;;;;;;;4.28;1.73;;;;;;;28.46;37.34;99461.31;4500391;31;34189;-80
2021/07/03 01:57:39;;;;;;;3.42;1.65;;;;;;;28.46;37.31;99459.41;4499636;31;33864;-83
2021/07/03 02:00:09;;;;;;;2.40;1.50;;;;;;;28.48;37.34;99459.13;4499128;31;34566;-82
2021/07/03 02:02:48;;;;;;;8.07;1.80;;;;;;;28.46;37.37;99464.06;4496935;31;33559;-77
2021/07/03 02:05:18;;;;;;;7.50;1.80;;;;;;;28.48;37.39;99462.69;4490099;31;33845;-82
2021/07/03 02:07:46;;;;;;;7.25;1.60;;;;;;;28.47;37.87;99472.03;4500263;31;33989;-82
2021/07/03 02:10:13;;;;;;;6.80;1.50;;;;;;;28.46;37.64;99472.28;4489638;31;34059;-82
2021/07/03 02:12:42;;;;;;;3.92;1.70;;;;;;;28.47;37.84;99473.94;4483075;32;33876;-82
2021/07/03 02:15:12;;;;;;;5.55;1.60;;;;;;;28.45;37.60;99473.41;4493822;31;34304;-82
2021/07/03 02:17:40;;;;;;;4.55;1.58;;;;;;;28.45;37.49;99478.88;4498231;31;33998;-79
2021/07/03 02:20:09;;;;;;;2.58;1.20;;;;;;;28.43;37.56;99481.06;4499205;31;35239;-81
2021/07/03 02:22:38;;;;;;;2.65;1.73;;;;;;;28.42;37.48;99479.41;4488128;31;34231;-81
2021/07/03 02:25:06;;;;;;;2.85;1.70;;;;;;;28.41;37.76;99461.28;4482975;32;33739;-79
2021/07/03 02:27:35;;;;;;;4.43;1.80;;;;;;;28.40;37.52;99456.91;4483431;32;34442;-81
2021/07/03 02:30:08;;;;;;;2.85;1.50;;;;;;;28.38;37.60;99464.56;4470463;32;35099;-82
2021/07/03 02:32:36;;;;;;;2.72;1.37;;;;;;;28.38;37.77;99470.06;4483774;31;33788;-81
2021/07/03 02:35:06;;;;;;;2.70;1.33;;;;;;;28.38;37.73;99473.63;4483368;32;33423;-82
2021/07/03 02:37:35;;;;;;;2.72;1.58;;;;;;;28.38;37.63;99475.53;4484493;32;33867;-80
2021/07/03 02:40:07;;;;;;;5.28;1.50;;;;;;;28.38;37.56;99476.38;4457424;32;33589;-78
2021/07/03 02:42:35;;;;;;;8.68;2.03;;;;;;;28.36;37.63;99470.34;4484240;32;33847;-82
2021/07/03 02:45:08;;;;;;;6.78;1.60;;;;;;;28.37;37.61;99480.22;4484045;32;33560;-81
2021/07/03 02:47:36;;;;;;;6.40;1.75;;;;;;;28.37;37.67;99477.47;4484193;32;34884;-82
2021/07/03 02:50:05;;;;;;;4.80;1.80;;;;;;;28.37;37.66;99476.63;4484292;32;33518;-82
2021/07/03 02:52:33;;;;;;;3.55;1.70;;;;;;;28.35;37.67;99479.66;4484156;32;34006;-79
2021/07/03 02:55:01;;;;;;;4.60;2.00;;;;;;;28.36;37.58;99484.06;4484445;32;33398;-81
2021/07/03 02:57:29;;;;;;;4.47;1.65;;;;;;;28.34;37.60;99482.63;4485193;31;35467;-83
2021/07/03 02:59:57;;;;;;;3.00;1.50;;;;;;;28.34;37.71;99485.38;4499918;31;34062;-82
2021/07/03 03:02:25;;;;;;;4.85;1.90;;;;;;;28.35;37.73;99484.28;4488882;31;34538;-81
2021/07/03 03:04:52;;;;;;;3.85;1.60;;;;;;;28.34;37.68;99478.00;4488454;31;33348;-80
2021/07/03 03:07:20;;;;;;;3.42;1.50;;;;;;;28.35;37.70;99492.53;4472728;31;33991;-82
2021/07/03 03:09:47;;;;;;;8.55;1.98;;;;;;;28.35;37.78;99489.78;4498550;31;33973;-83
2021/07/03 03:12:15;;;;;;;6.18;1.80;;;;;;;28.35;37.58;99496.13;4499948;31;33714;-81
2021/07/03 03:14:46;;;;;;;2.42;1.48;;;;;;;28.35;37.71;99489.78;4499751;31;34244;-81
2021/07/03 03:17:14;;;;;;;2.42;1.37;;;;;;;28.35;37.64;99500.75;4499699;31;34768;-82
2021/07/03 03:19:42;;;;;;;6.12;2.17;;;;;;;28.32;37.70;99495.78;4496707;31;34105;-83
2021/07/03 03:22:10;;;;;;;6.50;2.00;;;;;;;28.33;37.80;99501.00;4498142;31;33644;-83
2021/07/03 03:24:37;;;;;;;4.62;2.00;;;;;;;28.34;37.74;99499.94;4499077;31;34331;-68
2021/07/03 03:27:06;;;;;;;3.33;1.60;;;;;;;28.34;37.68;99501.84;4488099;31;33967;-81
2021/07/03 03:29:33;;;;;;;9.55;1.70;;;;;;;28.32;37.70;99501.28;4498386;31;34019;-80
2021/07/03 03:32:01;;;;;;;4.72;1.52;;;;;;;28.33;37.67;99498.25;4489257;31;33504;-80
2021/07/03 03:34:29;;;;;;;4.62;1.48;;;;;;;28.32;37.80;99502.09;4499413;31;34409;-78
2021/07/03 03:36:57;;;;;;;2.85;1.58;;;;;;;28.31;37.71;99496.91;4485269;31;34013;-79
2021/07/03 03:39:25;;;;;;;4.85;1.50;;;;;;;28.31;37.76;99499.63;4486192;31;33774;-80
2021/07/03 03:41:53;;;;;;;3.62;1.80;;;;;;;28.29;37.83;99496.31;4469697;32;34482;-81
2021/07/03 03:44:21;;;;;;;3.08;1.50;;;;;;;28.29;37.79;99491.66;4489496;31;33410;-76
2021/07/03 03:46:53;;;;;;;2.50;1.62;;;;;;;28.30;37.80;99489.72;4499322;31;34405;-83
2021/07/03 03:49:22;;;;;;;3.97;1.60;;;;;;;28.31;37.63;99494.97;4499419;31;35004;-83
2021/07/03 03:51:50;;;;;;;4.55;1.67;;;;;;;28.31;37.62;99499.63;4494059;31;33853;-80
2021/07/03 03:54:18;;;;;;;2.85;1.37;;;;;;;28.30;37.76;99504.28;4479606;31;33932;-80
2021/07/03 03:56:45;;;;;;;7.80;1.40;;;;;;;28.30;37.71;99495.22;4484577;31;33288;-77
2021/07/03 03:59:13;;;;;;;6.37;1.35;;;;;;;28.32;37.76;99495.78;4482364;32;34639;-80
2021/07/03 04:01:42;;;;;;;5.57;1.52;;;;;;;28.32;38.18;99504.03;4469591;32;33798;-82
2021/07/03 04:04:10;;;;;;;2.42;1.45;;;;;;;28.31;38.08;99505.94;4483452;32;34317;-77
2021/07/03 04:06:38;;;;;;;5.68;2.30;;;;;;;28.31;37.90;99494.16;4483683;32;33521;-79
2021/07/03 04:09:05;;;;;;;3.33;1.60;;;;;;;28.31;37.90;99500.47;4482864;31;33948;-82
2021/07/03 04:11:33;;;;;;;2.30;1.40;;;;;;;28.31;37.90;99494.16;4498942;31;33098;-81
2021/07/03 04:14:01;;;;;;;4.60;1.58;;;;;;;28.32;38.26;99493.06;4497812;31;34212;-81
2021/07/03 04:16:28;;;;;;;2.05;1.50;;;;;;;28.31;38.04;99488.66;4497525;31;33771;-81
2021/07/03 04:18:56;;;;;;;3.62;1.60;;;;;;;28.31;38.12;99497.72;4484747;31;32561;-81
2021/07/03 04:21:23;;;;;;;3.33;1.73;;;;;;;28.30;38.03;99498.78;4499104;31;34482;-81
2021/07/03 04:23:51;;;;;;;2.97;1.73;;;;;;;28.29;38.12;99497.16;4498716;31;33499;-76
2021/07/03 04:26:19;;;;;;;3.95;1.50;;;;;;;28.28;38.00;99495.50;4498719;31;33618;-81
2021/07/03 04:28:46;;;;;;;3.25;1.80;;;;;;;28.29;38.01;99497.16;4498732;31;34107;-81
2021/07/03 04:31:13;;;;;;;5.28;1.65;;;;;;;28.27;38.02;99484.78;4498615;31;34041;-83
2021/07/03 04:33:41;;;;;;;2.62;1.60;;;;;;;28.28;38.10;99486.44;4498638;31;33960;-80
2021/07/03 04:36:09;;;;;;;3.33;1.60;;;;;;;28.28;38.12;99486.44;4497226;31;34587;-78
2021/07/03 04:38:36;;;;;;;4.35;1.85;;;;;;;28.27;38.03;99482.06;4498447;31;34136;-82
2021/07/03 04:41:04;;;;;;;3.95;1.90;;;;;;;28.26;38.04;99478.50;4500969;31;33621;-82
2021/07/03 04:43:33;;;;;;;3.78;1.80;;;;;;;28.27;38.05;99479.31;4501031;31;34182;-82
2021/07/03 04:46:00;;;;;;;3.80;2.10;;;;;;;28.26;38.01;99477.63;4499771;31;35216;-82
2021/07/03 04:48:30;;;;;;;2.95;1.67;;;;;;;28.26;38.02;99480.38;4499778;31;34892;-82
2021/07/03 04:51:02;;;;;;;4.35;2.20;;;;;;;28.27;38.07;99482.06;4499438;31;34678;-78
2021/07/03 04:53:30;;;;;;;2.87;1.77;;;;;;;28.27;38.07;99479.31;4500552;31;33481;-78
2021/07/03 04:55:57;;;;;;;4.95;1.92;;;;;;;28.27;38.10;99473.81;4500821;31;34288;-82
2021/07/03 04:58:25;;;;;;;4.18;2.10;;;;;;;28.25;38.09;99484.22;4499504;31;34081;-79
2021/07/03 05:00:52;;;;;;;5.53;2.22;;;;;;;28.24;38.13;99480.66;4499625;31;33102;-82
2021/07/03 05:03:20;;;;;;;4.75;2.00;;;;;;;28.24;38.18;99480.66;4499495;31;34241;-80
2021/07/03 05:05:47;;;;;;;5.85;2.03;;;;;;;28.24;38.22;99483.41;4499589;31;34327;-75
2021/07/03 05:08:15;;;;;;;8.73;2.45;;;;;;;28.22;38.26;99486.41;4500449;31;34682;-81
2021/07/03 05:10:42;;;;;;;8.02;2.10;;;;;;;28.25;38.34;99474.06;4500688;31;33838;-81
2021/07/03 05:13:10;;;;;;;4.93;2.30;;;;;;;28.27;38.35;99476.56;4500598;31;34197;-81
2021/07/03 05:15:38;;;;;;;7.70;2.50;;;;;;;28.25;38.36;99470.50;4499037;31;33560;-79
2021/07/03 05:18:06;;;;;;;8.63;2.45;;;;;;;28.24;38.34;99455.97;4486710;31;34003;-69
2021/07/03 05:20:34;;;;;;;7.68;2.45;;;;;;;28.27;38.30;99463.66;4500485;31;33850;-77
2021/07/03 05:23:02;;;;;;;7.18;3.00;;;;;;;28.26;38.31;99467.50;4500374;31;33557;-68
2021/07/03 05:25:29;;;;;;;10.63;2.60;;;;;;;28.27;38.31;99462.84;4500300;31;34288;-75
2021/07/03 05:27:57;;;;;;;7.62;2.72;;;;;;;28.29;38.36;99466.13;4500399;31;34197;-71
2021/07/03 05:30:24;;;;;;;9.48;2.35;;;;;;;28.27;38.40;99463.66;4498671;31;33899;-66
2021/07/03 05:32:52;;;;;;;9.40;2.70;;;;;;;28.28;38.41;99469.97;4498181;31;33671;-73
2021/07/03 05:35:19;;;;;;;6.25;2.35;;;;;;;28.29;38.44;99477.13;4487413;31;33960;-73
2021/07/03 05:37:47;;;;;;;9.50;2.70;;;;;;;28.28;38.52;99470.81;4499861;31;34057;-76
2021/07/03 05:40:16;;;;;;;6.03;2.80;;;;;;;28.28;38.54;99467.25;4499532;31;33815;-72
2021/07/03 05:42:43;;;;;;;5.35;2.90;;;;;;;28.29;38.54;99468.88;4499115;31;33556;-75
2021/07/03 05:45:14;;;;;;;7.10;2.75;;;;;;;28.30;38.52;99478.75;4498584;31;33921;-74
2021/07/03 05:47:43;;;;;;;7.70;2.90;;;;;;;28.30;38.52;99468.59;4472605;31;33696;-73
2021/07/03 05:50:10;;;;;;;6.97;2.92;;;;;;;28.29;38.58;99466.97;4494621;31;33951;-69
2021/07/03 05:52:38;;;;;;;6.20;2.70;;;;;;;28.27;38.58;99471.91;4490582;31;33287;-78
2021/07/03 05:55:06;;;;;;;4.82;3.25;;;;;;;28.29;38.58;99474.38;4491097;31;34051;-74
2021/07/03 05:57:34;;;;;;;6.00;3.00;;;;;;;28.29;38.60;99475.19;4496538;31;34110;-78
2021/07/03 06:00:06;;;;;;;4.25;2.78;;;;;;;28.29;38.56;99469.69;4490338;31;33917;-79
2021/07/03 06:02:41;;;;;;;7.57;3.00;;;;;;;28.30;38.61;99463.12;4500120;31;33523;-79
2021/07/03 06:05:10;;;;;;;7.18;3.08;;;;;;;28.33;38.57;99480.97;4482911;32;33921;-79
2021/07/03 06:07:37;;;;;;;6.18;3.50;;;;;;;28.30;38.61;99481.50;4470499;32;34047;-73
2021/07/03 06:10:05;;;;;;;6.60;3.20;;;;;;;28.30;38.62;99482.31;4470349;32;34893;-77
2021/07/03 06:12:33;;;;;;;5.78;3.08;;;;;;;28.29;38.64;99480.69;4497230;31;33662;-77
2021/07/03 06:15:00;;;;;;;5.87;3.20;;;;;;;28.31;38.64;99485.91;4500621;31;34311;-77
2021/07/03 06:17:29;;;;;;;7.15;3.78;;;;;;;28.31;38.65;99486.75;4499226;31;34243;-79
2021/07/03 06:19:56;;;;;;;5.32;3.60;;;;;;;28.30;38.69;99485.06;4498857;31;34143;-77
2021/07/03 06:22:24;;;;;;;5.30;3.37;;;;;;;28.30;38.69;99485.06;4499279;31;34298;-76
2021/07/03 06:24:51;;;;;;;7.78;3.70;;;;;;;28.31;38.65;99484.00;4499736;31;34117;-71
2021/07/03 06:27:19;;;;;;;5.70;3.65;;;;;;;28.30;38.70;99479.59;4498916;31;33975;-79
2021/07/03 06:29:47;;;;;;;5.28;3.42;;;;;;;28.28;38.77;99481.78;4499128;31;33058;-76
2021/07/03 06:32:14;;;;;;;5.95;4.03;;;;;;;28.30;38.79;99485.06;4500372;31;33659;-77
2021/07/03 06:34:42;;;;;;;6.05;3.78;;;;;;;28.30;38.82;99484.25;4500334;31;33820;-78
2021/07/03 06:37:09;;;;;;;5.03;3.42;;;;;;;28.31;38.83;99469.47;4498784;31;32424;-74
2021/07/03 06:39:37;;;;;;;5.22;3.37;;;;;;;28.32;38.79;99465.63;4499855;31;34627;-79
2021/07/03 06:42:04;;;;;;;5.80;3.75;;;;;;;28.32;38.73;99457.38;4485238;31;33337;-79
2021/07/03 06:44:32;;;;;;;5.72;3.65;;;;;;;28.32;38.82;99465.63;4499882;31;35109;-78
2021/07/03 06:46:59;;;;;;;6.68;4.07;;;;;;;28.32;38.82;99469.19;4498619;31;34009;-79
2021/07/03 06:49:27;;;;;;;5.60;3.70;;;;;;;28.32;38.85;99466.44;4492622;31;33803;-79
2021/07/03 06:51:55;;;;;;;6.45;3.75;;;;;;;28.32;38.86;99468.34;4482914;32;34098;-80
2021/07/03 06:54:22;;;;;;;9.48;4.45;;;;;;;28.31;38.93;99470.28;4493947;31;34782;-78
2021/07/03 06:56:57;;;;;;;14.55;4.47;;;;;;;28.31;38.92;99469.47;4478685;31;33878;-79
2021/07/03 06:59:28;;;;;;;11.50;4.10;;;;;;;28.31;38.86;99463.97;4491729;31;33760;-79
2021/07/03 07:01:55;;;;;;;7.32;4.03;;;;;;;28.32;38.84;99463.69;4469699;31;32104;-77
2021/07/03 07:04:23;;;;;;;10.27;4.25;;;;;;;28.32;38.83;99468.34;4491576;31;36032;-80
2021/07/03 07:06:53;;;;;;;15.60;5.03;;;;;;;28.31;38.83;99477.69;4474701;31;33761;-79
2021/07/03 07:09:20;;;;;;;7.62;4.15;;;;;;;28.32;38.74;99479.34;4485496;31;34562;-78
2021/07/03 07:11:48;;;;;;;7.05;4.30;;;;;;;28.35;38.68;99465.94;4499803;31;34317;-78
2021/07/03 07:14:15;;;;;;;6.70;4.40;;;;;;;28.36;38.63;99470.34;4485348;31;33910;-79
2021/07/03 07:16:43;;;;;;;6.45;3.80;;;;;;;28.36;38.59;99470.34;4497552;31;34214;-80
2021/07/03 07:19:10;;;;;;;6.15;4.43;;;;;;;28.36;38.58;99473.06;4499704;31;34457;-80
2021/07/03 07:21:38;;;;;;;7.68;4.22;;;;;;;28.37;38.57;99479.38;4498567;31;33598;-82
2021/07/03 07:24:06;;;;;;;7.40;4.30;;;;;;;28.36;38.60;99472.25;4499550;31;33663;-75
2021/07/03 07:26:33;;;;;;;9.30;4.35;;;;;;;28.36;38.60;99472.25;4499598;31;34748;-81
2021/07/03 07:29:01;;;;;;;6.47;4.22;;;;;;;28.37;38.56;99488.44;4499283;31;33791;-82
2021/07/03 07:31:28;;;;;;;6.90;4.10;;;;;;;28.38;38.55;99486.53;4498994;31;33349;-80
2021/07/03 07:33:56;;;;;;;7.15;4.15;;;;;;;28.38;38.51;99492.81;4491584;31;34151;-80
2021/07/03 07:36:23;;;;;;;6.80;4.18;;;;;;;28.39;38.49;99499.97;4499017;31;34001;-81
2021/07/03 07:38:51;;;;;;;7.45;4.47;;;;;;;28.40;38.47;99507.13;4477196;31;34036;-82
2021/07/03 07:41:18;;;;;;;8.15;4.62;;;;;;;28.41;38.46;99510.69;4478328;31;33360;-82
2021/07/03 07:43:46;;;;;;;7.32;4.47;;;;;;;28.41;38.47;99510.69;4491353;31;32752;-82
2021/07/03 07:46:14;;;;;;;6.80;4.18;;;;;;;28.41;38.44;99514.25;4498723;31;33990;-82
2021/07/03 07:48:41;;;;;;;7.47;5.10;;;;;;;28.41;38.45;99511.50;4496962;31;34504;-83
2021/07/03 07:51:09;;;;;;;8.07;4.68;;;;;;;28.40;38.44;99507.13;4491123;31;33875;-82
2021/07/03 07:53:36;;;;;;;7.53;4.68;;;;;;;28.40;38.45;99506.31;4490829;31;33846;-82
2021/07/03 07:56:04;;;;;;;6.25;4.32;;;;;;;28.41;38.44;99506.03;4499058;31;33730;-75
2021/07/03 07:58:31;;;;;;;6.82;4.72;;;;;;;28.42;38.42;99504.09;4472382;32;33069;-78
2021/07/03 08:00:59;;;;;;;6.53;4.72;;;;;;;28.40;38.44;99511.78;4482084;32;34130;-80
2021/07/03 08:03:27;;;;;;;6.87;4.32;;;;;;;28.40;38.45;99503.56;4482404;32;35162;-83
2021/07/03 08:06:00;;;;;;;6.40;4.45;;;;;;;28.41;38.41;99507.94;4483231;32;34013;-71
2021/07/03 08:08:28;;;;;;;7.90;4.50;;;;;;;28.40;38.41;99509.88;4483156;31;33861;-77
2021/07/03 08:10:55;;;;;;;7.57;4.37;;;;;;;28.41;38.42;99511.50;4483115;31;33405;-74
2021/07/03 08:13:23;;;;;;;7.80;4.93;;;;;;;28.42;38.39;99504.94;4481871;31;34715;-74
2021/07/03 08:15:51;;;;;;;11.12;5.22;;;;;;;28.44;38.38;99505.47;4485301;31;34888;-76
2021/07/03 08:18:23;;;;;;;17.37;4.90;;;;;;;28.45;38.38;99506.31;4492305;31;34248;-75
2021/07/03 08:20:51;;;;;;;12.70;5.65;;;;;;;28.46;38.37;99505.22;4499729;31;33224;-72
2021/07/03 08:23:19;;;;;;;17.17;5.22;;;;;;;28.47;38.38;99512.38;4499063;31;33905;-75
2021/07/03 08:25:48;;;;;;;16.15;5.30;;;;;;;28.46;38.36;99511.53;4500542;31;34820;-74
2021/07/03 08:28:16;;;;;;;7.60;4.82;;;;;;;28.46;38.34;99510.72;4493940;31;35194;-77
2021/07/03 08:30:44;;;;;;;13.70;4.60;;;;;;;28.48;38.32;99516.75;4483922;32;33452;-76
2021/07/03 08:33:12;;;;;;;12.55;5.20;;;;;;;28.49;38.34;99510.16;4484446;32;35328;-74
2021/07/03 08:35:41;;;;;;;8.88;4.85;;;;;;;28.48;38.35;99514.00;4484922;32;34008;-76
2021/07/03 08:38:08;;;;;;;8.15;4.70;;;;;;;28.47;38.36;99507.69;4489091;31;33953;-72
2021/07/03 08:40:35;;;;;;;8.90;4.45;;;;;;;28.48;38.36;99514.81;4499594;31;34392;-76
2021/07/03 08:43:03;;;;;;;10.05;4.35;;;;;;;28.47;38.37;99496.72;4500732;31;33763;-75
2021/07/03 08:45:31;;;;;;;10.90;4.60;;;;;;;28.48;38.38;99509.34;4499575;31;33644;-74
2021/07/03 08:47:58;;;;;;;12.90;5.03;;;;;;;28.46;38.39;99508.78;4496147;31;33575;-77
2021/07/03 08:50:26;;;;;;;9.20;4.78;;;;;;;28.48;38.40;99511.25;4484938;32;34168;-68
2021/07/03 08:52:53;;;;;;;7.80;4.53;;;;;;;28.49;38.39;99518.41;4470654;32;34733;-76
2021/07/03 08:55:25;;;;;;;9.55;4.50;;;;;;;28.49;38.39;99521.13;4484966;32;34240;-76
2021/07/03 08:58:04;;;;;;;7.82;4.62;;;;;;;28.48;38.41;99514.00;4487290;31;33674;-76
2021/07/03 09:00:39;;;;;;;9.67;4.87;;;;;;;28.49;38.40;99504.66;4499382;31;33384;-71
2021/07/03 09:03:14;;;;;;;7.20;4.32;;;;;;;28.49;38.39;99515.66;4484668;31;33729;-73
2021/07/03 09:05:43;;;;;;;7.53;4.05;;;;;;;28.48;38.42;99508.50;4484790;32;34088;-76
2021/07/03 09:08:10;;;;;;;8.20;4.55;;;;;;;28.47;38.43;99521.41;4490097;31;34542;-76
2021/07/03 09:10:39;;;;;;;9.15;4.47;;;;;;;28.50;38.41;99516.50;4486457;31;34255;-76
2021/07/03 09:13:07;;;;;;;8.60;4.40;;;;;;;28.48;38.45;99523.06;4500692;31;34681;-77
2021/07/03 09:15:39;;;;;;;10.50;4.78;;;;;;;28.48;38.46;99519.50;4498766;31;33976;-71
2021/07/03 09:18:13;;;;;;;6.12;4.40;;;;;;;28.49;38.47;99523.88;4483440;32;33800;-74
2021/07/03 09:20:51;;;;;;;6.28;4.03;;;;;;;28.48;38.50;99516.75;4470918;32;34306;-75
2021/07/03 09:23:38;;;;;;;7.53;4.30;;;;;;;28.50;38.46;99509.09;4496250;31;33568;-75
2021/07/03 09:26:07;;;;;;;6.57;4.60;;;;;;;28.48;38.50;99512.09;4498653;31;33636;-71
2021/07/03 09:28:38;;;;;;;7.47;4.50;;;;;;;28.48;38.52;99514.00;4473271;31;33891;-76
2021/07/03 09:31:06;;;;;;;6.47;4.28;;;;;;;28.47;38.51;99504.94;4486511;31;33392;-77
2021/07/03 09:33:36;;;;;;;7.17;3.73;;;;;;;28.48;38.51;99506.59;4483006;32;33907;-77
2021/07/03 09:36:08;;;;;;;9.23;4.18;;;;;;;28.49;38.51;99507.41;4457523;32;33634;-76
2021/07/03 09:38:39;;;;;;;6.50;4.00;;;;;;;28.49;38.52;99488.19;4483551;32;33707;-73
2021/07/03 09:41:11;;;;;;;9.68;4.18;;;;;;;28.48;38.52;99498.34;4483053;32;31950;-76
2021/07/03 09:43:48;;;;;;;6.93;4.00;;;;;;;28.48;38.54;99483.81;4483497;31;34309;-77
2021/07/03 09:46:41;;;;;;;5.68;3.90;;;;;;;28.50;38.55;99491.81;4484426;32;34423;-75
2021/07/03 09:49:14;;;;;;;6.85;4.20;;;;;;;28.49;38.56;99493.69;4482120;31;33501;-77
2021/07/03 09:51:46;;;;;;;9.73;4.22;;;;;;;28.48;38.57;99492.88;4484363;31;33491;-76
2021/07/03 09:54:18;;;;;;;5.68;3.58;;;;;;;28.48;38.66;99489.31;4483147;32;34959;-77
2021/07/03 09:56:46;;;;;;;6.22;4.07;;;;;;;28.51;38.53;99486.03;4482909;32;33969;-72
2021/07/03 09:59:13;;;;;;;7.00;4.30;;;;;;;28.48;38.60;99487.38;4484461;32;33893;-75
2021/07/03 10:01:43;;;;;;;9.82;4.37;;;;;;;28.48;38.62;99475.59;4482972;31;34137;-71
2021/07/03 10:04:11;;;;;;;6.10;3.90;;;;;;;28.47;38.62;99474.75;4470493;32;33796;-76
2021/07/03 10:06:56;;;;;;;7.93;4.50;;;;;;;28.48;38.62;99465.44;4483335;32;33744;-73
2021/07/03 10:09:46;;;;;;;7.70;3.90;;;;;;;28.50;38.66;99467.09;4483529;31;33147;-76
2021/07/03 10:12:22;;;;;;;10.50;4.43;;;;;;;28.48;38.67;99465.44;4483295;31;33504;-72
2021/07/03 10:14:49;;;;;;;8.80;4.10;;;;;;;28.47;38.73;99460.22;4483264;32;34552;-78
2021/07/03 10:17:27;;;;;;;6.37;3.97;;;;;;;28.46;38.72;99455.81;4483035;32;35149;-78
2021/07/03 10:19:55;;;;;;;6.28;4.18;;;;;;;28.47;38.73;99457.47;4482922;32;34510;-77
2021/07/03 10:22:30;;;;;;;7.55;4.30;;;;;;;28.45;38.76;99456.94;4470160;32;33488;-77
2021/07/03 10:25:00;;;;;;;7.65;3.92;;;;;;;28.46;38.75;99462.13;4479063;31;33835;-77
2021/07/03 10:27:29;;;;;;;8.02;4.45;;;;;;;28.44;38.76;99467.06;4498671;31;35356;-78
2021/07/03 10:30:01;;;;;;;5.80;4.45;;;;;;;28.46;38.74;99462.13;4493501;31;34045;-78
2021/07/03 10:32:33;;;;;;;6.70;4.07;;;;;;;28.46;38.74;99458.56;4499886;31;33613;-77
2021/07/03 10:35:12;;;;;;;6.70;4.10;;;;;;;28.46;38.75;99458.56;4498785;31;34048;-77
2021/07/03 10:37:40;;;;;;;7.28;3.75;;;;;;;28.46;38.74;99464.88;4494593;31;34037;-75
2021/07/03 10:40:22;;;;;;;5.62;3.50;;;;;;;28.46;38.78;99464.06;4498852;31;33964;-75
2021/07/03 10:42:51;;;;;;;7.55;4.72;;;;;;;28.47;38.73;99457.47;4488695;31;33454;-76
2021/07/03 10:45:23;;;;;;;5.37;3.80;;;;;;;28.45;38.80;99460.50;4485602;31;33865;-76
2021/07/03 10:47:51;;;;;;;5.32;3.72;;;;;;;28.44;38.83;99461.56;4498702;31;34611;-74
2021/07/03 10:50:20;;;;;;;8.43;3.62;;;;;;;28.45;38.79;99452.25;4498441;31;33316;-74
2021/07/03 10:52:47;;;;;;;6.97;3.78;;;;;;;28.45;38.80;99457.75;4499852;31;33654;-76
2021/07/03 10:55:35;;;;;;;6.43;3.45;;;;;;;28.45;38.80;99465.97;4499754;31;34010;-76
2021/07/03 10:58:17;;;;;;;5.82;3.60;;;;;;;28.48;38.75;99459.94;4499630;31;34828;-73
2021/07/03 11:00:47;;;;;;;6.40;3.87;;;;;;;28.48;38.77;99459.13;4498714;31;33779;-73
2021/07/03 11:03:23;;;;;;;5.75;3.90;;;;;;;28.46;38.82;99459.41;4498923;31;33336;-76
2021/07/03 11:05:51;;;;;;;5.57;3.75;;;;;;;28.46;38.84;99461.31;4499870;31;33586;-72
2021/07/03 11:08:36;;;;;;;5.95;3.80;;;;;;;28.45;38.83;99463.25;4498678;31;33837;-75
2021/07/03 11:11:08;;;;;;;5.15;3.62;;;;;;;28.47;38.81;99463.78;4485627;31;34691;-75
2021/07/03 11:13:35;;;;;;;6.07;3.53;;;;;;;28.46;38.82;99451.16;4498303;31;33018;-71
2021/07/03 11:16:03;;;;;;;6.55;4.57;;;;;;;28.45;38.85;99449.53;4499746;31;33946;-76
2021/07/03 11:18:34;;;;;;;5.72;3.80;;;;;;;28.45;38.86;99448.69;4498345;31;34022;-75
2021/07/03 11:21:04;;;;;;;6.30;3.67;;;;;;;28.45;38.89;99448.69;4498463;31;34722;-76
2021/07/03 11:23:33;;;;;;;6.30;3.25;;;;;;;28.44;38.89;99442.34;4499145;31;33454;-73
2021/07/03 11:26:01;;;;;;;6.20;3.60;;;;;;;28.45;38.84;99432.22;4499098;31;33860;-75
2021/07/03 11:28:28;;;;;;;5.40;3.40;;;;;;;28.45;38.85;99435.78;4498258;31;34088;-75
2021/07/03 11:30:57;;;;;;;5.00;3.20;;;;;;;28.45;38.88;99432.22;4499549;31;34228;-73
2021/07/03 11:33:28;;;;;;;4.80;3.22;;;;;;;28.45;38.90;99424.00;4482320;31;33334;-74
2021/07/03 11:35:56;;;;;;;6.53;3.78;;;;;;;28.45;38.89;99424.81;4495418;31;34701;-73
2021/07/03 11:38:24;;;;;;;5.60;3.28;;;;;;;28.45;38.91;99415.75;4483699;32;33853;-68
2021/07/03 11:40:54;;;;;;;11.10;4.43;;;;;;;28.45;38.92;99416.59;4483590;32;33507;-72
2021/07/03 11:43:22;;;;;;;9.50;5.18;;;;;;;28.47;38.93;99413.56;4485065;31;33458;-75